createdAt,value
2023-05-21T00:01:45.713Z,16.42
2023-05-21T00:06:47.443Z,14.63
2023-05-21T00:11:49.093Z,17.98
2023-05-21T00:16:50.945Z,16.90
2023-05-21T00:21:53.532Z,15.38
2023-05-21T00:26:56.002Z,18.35
2023-05-21T00:31:57.993Z,18.77
2023-05-21T00:37:02.721Z,19.25
2023-05-21T00:42:04.796Z,18.95
2023-05-21T00:47:07.214Z,21.73
2023-05-21T00:52:09.121Z,20.20
2023-05-21T00:57:10.906Z,20.63
2023-05-21T01:02:14.287Z,16.90
2023-05-21T01:07:16.056Z,20.55
2023-05-21T01:12:18.613Z,18.85
2023-05-21T01:17:24.324Z,18.40
2023-05-21T01:22:26.556Z,18.23
2023-05-21T01:27:28.752Z,19.00
2023-05-21T01:32:37.834Z,19.10
2023-05-21T01:38:12.091Z,18.73
2023-05-21T01:43:14.358Z,20.08
2023-05-21T01:48:17.497Z,20.80
2023-05-21T01:53:19.274Z,20.55
2023-05-21T01:58:22.784Z,20.08
2023-05-21T02:03:27.119Z,19.00
2023-05-21T02:08:29.726Z,20.92
2023-05-21T02:13:32.470Z,18.55
2023-05-21T02:18:34.209Z,19.00
2023-05-21T02:23:36.694Z,19.67
2023-05-21T02:28:38.597Z,18.58
2023-05-21T02:33:41.830Z,13.13
2023-05-21T02:38:43.939Z,15.43
2023-05-21T02:43:45.945Z,19.65
2023-05-21T02:48:47.742Z,19.45
2023-05-21T02:53:50.068Z,18.90
2023-05-21T02:58:52.144Z,15.50
2023-05-21T03:03:53.987Z,17.90
2023-05-21T03:08:58.375Z,19.23
2023-05-21T03:14:00.276Z,18.85
2023-05-21T03:19:02.219Z,17.60
2023-05-21T03:24:06.476Z,18.70
2023-05-21T03:29:08.223Z,16.30
2023-05-21T03:34:11.083Z,17.00
2023-05-21T03:39:12.954Z,17.58
2023-05-21T03:44:14.976Z,17.23
2023-05-21T03:49:31.150Z,18.58
2023-05-21T03:54:33.940Z,16.38
2023-05-21T03:59:40.343Z,17.98
2023-05-21T04:04:43.452Z,17.60
2023-05-21T04:09:45.542Z,16.45
2023-05-21T04:14:48.549Z,15.13
2023-05-21T04:19:50.306Z,17.80
2023-05-21T04:24:52.905Z,14.70
2023-05-21T04:30:00.161Z,16.33
2023-05-21T04:35:02.092Z,15.68
2023-05-21T04:40:04.246Z,15.55
2023-05-21T04:45:06.612Z,15.02
2023-05-21T04:50:12.007Z,15.55
2023-05-21T04:55:13.770Z,14.35
2023-05-21T05:00:16.509Z,13.10
2023-05-21T05:05:20.189Z,15.43
2023-05-21T05:10:22.438Z,14.48
2023-05-21T05:15:26.307Z,12.88
2023-05-21T05:20:28.165Z,13.10
2023-05-21T05:25:30.703Z,13.52
2023-05-21T05:30:33.214Z,12.20
2023-05-21T05:35:46.597Z,14.32
2023-05-21T05:40:48.351Z,12.02
2023-05-21T05:45:50.080Z,13.65
2023-05-21T05:50:54.706Z,10.43
2023-05-21T05:55:58.034Z,12.40
2023-05-21T06:00:59.800Z,11.60
2023-05-21T06:06:04.620Z,12.98
2023-05-21T06:11:08.028Z,13.02
2023-05-21T06:16:10.097Z,11.90
2023-05-21T06:21:12.650Z,14.25
2023-05-21T06:26:15.008Z,13.07
2023-05-21T06:31:17.002Z,11.20
2023-05-21T06:36:19.684Z,11.95
2023-05-21T06:41:21.625Z,11.80
2023-05-21T06:46:31.264Z,12.68
2023-05-21T06:51:36.053Z,10.95
2023-05-21T06:56:38.463Z,10.35
2023-05-21T07:01:42.563Z,12.13
2023-05-21T07:06:44.805Z,11.82
2023-05-21T07:11:47.114Z,12.90
2023-05-21T07:16:51.274Z,11.27
2023-05-21T07:21:53.068Z,12.75
2023-05-21T07:26:55.414Z,12.27
2023-05-21T07:31:57.426Z,11.45
2023-05-21T07:36:59.369Z,13.13
2023-05-21T07:42:02.515Z,11.10
2023-05-21T07:47:04.740Z,12.55
2023-05-21T07:52:07.318Z,10.05
2023-05-21T07:57:09.127Z,12.00
2023-05-21T08:02:24.911Z,10.38
2023-05-21T08:07:27.651Z,10.65
2023-05-21T08:12:29.549Z,10.60
2023-05-21T08:17:31.532Z,10.95
2023-05-21T08:22:33.239Z,10.68
2023-05-21T08:27:34.968Z,10.52
2023-05-21T08:32:36.785Z,12.15
2023-05-21T08:37:38.632Z,10.55
2023-05-21T08:42:49.637Z,11.40
2023-05-21T08:48:17.007Z,10.73
2023-05-21T08:53:27.339Z,11.13
2023-05-21T08:58:33.660Z,10.73
2023-05-21T09:03:39.399Z,9.77
2023-05-21T09:08:45.544Z,10.20
2023-05-21T09:14:01.523Z,10.25
2023-05-21T09:19:13.729Z,10.75
2023-05-21T09:24:18.591Z,9.30
2023-05-21T09:29:21.032Z,10.57
2023-05-21T09:34:25.170Z,11.43
2023-05-21T09:39:30.118Z,10.52
2023-05-21T09:44:35.735Z,11.70
2023-05-21T09:49:38.401Z,9.32
2023-05-21T09:54:40.683Z,10.75
2023-05-21T09:59:42.444Z,9.32
2023-05-21T10:04:45.045Z,10.85
2023-05-21T10:09:48.758Z,8.85
2023-05-21T10:15:08.760Z,9.30
2023-05-21T10:20:11.294Z,9.32
2023-05-21T10:25:13.258Z,9.77
2023-05-21T10:30:15.360Z,8.95
2023-05-21T10:35:17.813Z,8.32
2023-05-21T10:40:19.957Z,8.68
2023-05-21T10:45:43.164Z,8.32
2023-05-21T10:50:56.833Z,11.35
2023-05-21T10:56:22.093Z,9.60
2023-05-21T11:01:28.117Z,9.02
2023-05-21T11:06:30.089Z,8.98
2023-05-21T11:11:42.978Z,8.18
2023-05-21T11:16:45.967Z,6.28
2023-05-21T11:21:51.381Z,6.57
2023-05-21T11:26:58.535Z,5.72
2023-05-21T11:32:05.531Z,5.97
2023-05-21T11:37:20.799Z,6.13
2023-05-21T11:42:33.933Z,7.45
2023-05-21T11:47:35.981Z,6.63
2023-05-21T11:52:38.240Z,7.53
2023-05-21T11:57:42.930Z,6.93
2023-05-21T12:02:53.319Z,7.45
2023-05-21T12:07:56.849Z,6.45
2023-05-21T12:12:58.731Z,7.25
2023-05-21T12:18:01.344Z,7.20
2023-05-21T12:23:03.095Z,8.65
2023-05-21T12:28:05.429Z,7.28
2023-05-21T12:33:07.206Z,7.63
2023-05-21T12:38:09.799Z,8.63
2023-05-21T12:43:11.734Z,7.53
2023-05-21T12:48:13.389Z,9.75
2023-05-21T12:53:15.120Z,7.90
2023-05-21T12:58:22.085Z,7.97
2023-05-21T13:03:23.853Z,7.57
2023-05-21T13:08:25.758Z,8.30
2023-05-21T13:13:27.506Z,8.35
2023-05-21T13:18:29.264Z,8.68
2023-05-21T13:23:31.057Z,9.90
2023-05-21T13:28:32.936Z,9.82
2023-05-21T13:33:34.721Z,11.23
2023-05-21T13:38:36.480Z,8.88
2023-05-21T13:43:38.176Z,8.68
2023-05-21T13:48:40.334Z,9.32
2023-05-21T13:53:42.094Z,10.48
2023-05-21T13:58:43.872Z,9.18
2023-05-21T14:03:45.697Z,7.10
2023-05-21T14:08:47.803Z,5.30
2023-05-21T14:13:49.547Z,6.22
2023-05-21T14:18:51.415Z,7.47
2023-05-21T14:23:53.780Z,6.30
2023-05-21T14:28:55.846Z,8.18
2023-05-21T14:33:57.681Z,6.88
2023-05-21T14:38:59.519Z,6.43
2023-05-21T14:44:01.281Z,6.15
2023-05-21T14:49:03.782Z,5.88
2023-05-21T14:54:05.530Z,5.82
2023-05-21T14:59:07.284Z,5.60
2023-05-21T15:04:09.171Z,5.32
2023-05-21T15:09:11.357Z,6.45
2023-05-21T15:14:13.081Z,5.72
2023-05-21T15:19:14.866Z,5.70
2023-05-21T15:24:16.684Z,6.93
2023-05-21T15:29:18.368Z,7.32
2023-05-21T15:34:20.174Z,6.25
2023-05-21T15:39:22.021Z,6.25
2023-05-21T15:44:25.032Z,6.32
2023-05-21T15:49:26.754Z,5.80
2023-05-21T15:54:28.649Z,6.18
2023-05-21T15:59:30.400Z,5.63
2023-05-21T16:04:33.887Z,5.22
2023-05-21T16:09:37.925Z,5.38
2023-05-21T16:14:39.601Z,5.95
2023-05-21T16:19:41.301Z,4.50
2023-05-21T16:24:43.007Z,5.70
2023-05-21T16:29:44.841Z,4.90
2023-05-21T16:34:46.544Z,4.57
2023-05-21T16:39:48.284Z,5.72
2023-05-21T16:44:49.940Z,4.80
2023-05-21T16:49:51.868Z,5.00
2023-05-21T16:54:54.688Z,5.03
2023-05-21T16:59:56.424Z,4.68
2023-05-21T17:04:58.192Z,4.57
2023-05-21T17:10:00.308Z,5.45
2023-05-21T17:15:02.131Z,5.38
2023-05-21T17:20:04.358Z,4.93
2023-05-21T17:25:06.662Z,4.90
2023-05-21T17:30:10.221Z,4.70
2023-05-21T17:35:11.899Z,5.43
2023-05-21T17:40:13.722Z,5.13
2023-05-21T17:45:15.523Z,5.78
2023-05-21T17:50:17.300Z,4.80
2023-05-21T17:55:19.191Z,5.45
2023-05-21T18:00:21.218Z,5.68
2023-05-21T18:05:22.957Z,4.97
2023-05-21T18:10:24.915Z,5.60
2023-05-21T18:15:26.648Z,6.45
2023-05-21T18:20:28.400Z,6.15
2023-05-21T18:25:30.063Z,4.65
2023-05-21T18:30:31.838Z,5.90
2023-05-21T18:35:33.654Z,6.10
2023-05-21T18:40:37.085Z,5.50
2023-05-21T18:45:39.017Z,5.57
2023-05-21T18:50:40.743Z,6.05
2023-05-21T18:55:42.416Z,4.97
2023-05-21T19:00:44.123Z,5.05
2023-05-21T19:05:45.885Z,4.82
2023-05-21T19:10:47.656Z,4.70
2023-05-21T19:15:49.408Z,4.38
2023-05-21T19:20:51.105Z,4.55
2023-05-21T19:25:52.848Z,4.72
2023-05-21T19:30:54.558Z,4.40
2023-05-21T19:35:56.272Z,5.88
2023-05-21T19:40:57.950Z,4.65
2023-05-21T19:45:59.769Z,4.45
2023-05-21T19:51:02.069Z,4.72
2023-05-21T19:56:03.791Z,4.07
2023-05-21T20:01:06.154Z,4.57
2023-05-21T20:06:07.969Z,4.65
2023-05-21T20:11:09.616Z,5.75
2023-05-21T20:16:12.662Z,4.88
2023-05-21T20:21:17.456Z,4.70
2023-05-21T20:26:19.252Z,4.70
2023-05-21T20:31:21.725Z,4.03
2023-05-21T20:36:23.879Z,3.50
2023-05-21T20:41:25.634Z,5.20
2023-05-21T20:46:28.384Z,3.60
2023-05-21T20:51:30.938Z,4.35
2023-05-21T20:56:42.209Z,5.72
2023-05-21T21:01:44.950Z,5.72
2023-05-21T21:06:46.831Z,4.28
2023-05-21T21:11:48.875Z,4.28
2023-05-21T21:16:52.081Z,6.70
2023-05-21T21:21:53.884Z,7.63
2023-05-21T21:26:55.925Z,5.05
2023-05-21T21:31:57.596Z,5.45
2023-05-21T21:36:59.256Z,5.82
2023-05-21T21:42:01.069Z,5.90
2023-05-21T21:47:02.778Z,6.25
2023-05-21T21:52:04.686Z,6.25
2023-05-21T21:57:06.483Z,7.18
2023-05-21T22:02:08.218Z,6.07
2023-05-21T22:07:10.984Z,7.30
2023-05-21T22:12:13.326Z,7.22
2023-05-21T22:17:17.882Z,7.65
2023-05-21T22:22:19.570Z,6.18
2023-05-21T22:27:21.306Z,6.00
2023-05-21T22:32:23.015Z,6.60
2023-05-21T22:37:26.135Z,6.95
2023-05-21T22:42:27.875Z,9.68
2023-05-21T22:47:29.990Z,9.27
2023-05-21T22:52:31.976Z,6.57
2023-05-21T22:57:33.746Z,5.93
2023-05-21T23:02:35.414Z,6.93
2023-05-21T23:07:37.108Z,6.68
2023-05-21T23:12:39.191Z,7.85
2023-05-21T23:17:41.083Z,6.72
2023-05-21T23:22:42.859Z,7.45
2023-05-21T23:27:44.962Z,8.32
2023-05-21T23:32:46.794Z,7.50
2023-05-21T23:37:48.623Z,6.78
2023-05-21T23:42:50.277Z,7.95
2023-05-21T23:47:52.650Z,7.35
2023-05-21T23:52:54.433Z,9.02
2023-05-21T23:57:56.089Z,8.32
